Time;durP1;ratioP1;P1;durP2;ratioP2;P2;SDS_P1;SDS_P2;PMS_P1;PMS_P2;Temp;Humidity;BMP_temperature;BMP_pressure;BME280_temperature;BME280_humidity;BME280_pressure;Samples;Min_cycle;Max_cycle;Signal;HPM_P1;HPM_P2
2023/10/11 00:00:38;;;;;;;;;;;;;;;21.32;48.55;98533.97;5085992;28;19995;-64
2023/10/11 00:05:47;;;;;;;;;;;;;;;21.33;48.73;98523.84;5075890;28;19912;-65
2023/10/11 00:08:16;;;;;;;;;;;;;;;21.29;48.63;98518.19;5075845;28;20006;-65
2023/10/11 00:10:53;;;;;;;;;;;;;;;21.27;48.78;98523.16;5076218;28;19928;-65
2023/10/11 00:13:19;;;;;;;;;;;;;;;21.23;49.08;98514.78;5076026;28;20257;-65
2023/10/11 00:15:48;;;;;;;;;;;;;;;21.25;49.17;98512.56;5076037;28;20057;-64
2023/10/11 00:18:14;;;;;;;;;;;;;;;21.28;48.96;98500.19;5086480;28;20010;-64
2023/10/11 00:23:07;;;;;;;;;;;;;;;21.32;48.76;98479.34;5075428;28;19994;-65
2023/10/11 00:25:33;;;;;;;;;;;;;;;21.30;48.98;98472.56;5073895;28;19913;-65
2023/10/11 00:27:58;;;;;;;;;;;;;;;21.34;48.66;98481.75;5074772;28;19955;-65
2023/10/11 00:30:30;;;;;;;;;;;;;;;21.33;48.69;98478.22;5074675;28;19920;-65
2023/10/11 00:32:56;;;;;;;;;;;;;;;21.36;48.49;98471.31;5074922;28;19919;-65
2023/10/11 00:35:24;;;;;;;;;;;;;;;21.39;48.42;98466.03;5074776;28;19991;-65
2023/10/11 00:37:51;;;;;;;;;;;;;;;21.34;48.63;98458.00;5075068;28;20396;-64
2023/10/11 00:40:27;;;;;;;;;;;;;;;21.33;48.52;98464.56;5074913;28;19922;-65
2023/10/11 00:42:53;;;;;;;;;;;;;;;21.32;48.56;98462.97;5075223;28;20007;-65
2023/10/11 00:45:22;;;;;;;;;;;;;;;21.41;48.35;98469.28;5074440;28;19955;-65
2023/10/11 00:47:51;;;;;;;;;;;;;;;21.39;48.25;98473.44;5074860;28;19919;-65
2023/10/11 00:50:16;;;;;;;;;;;;;;;21.50;48.11;98474.00;5074584;28;19955;-65
2023/10/11 00:52:50;;;;;;;;;;;;;;;21.50;48.18;98463.06;5075194;28;19912;-65
2023/10/11 00:55:18;;;;;;;;;;;;;;;21.59;47.80;98447.53;5074133;28;19916;-65
2023/10/11 00:57:49;;;;;;;;;;;;;;;21.61;47.63;98445.28;5074298;28;20036;-65
2023/10/11 01:00:17;;;;;;;;;;;;;;;21.71;47.24;98447.72;5081383;28;20342;-65
2023/10/11 01:02:45;;;;;;;;;;;;;;;21.65;47.64;98454.44;5081567;28;19913;-65
2023/10/11 01:05:11;;;;;;;;;;;;;;;21.76;47.22;98441.28;5055873;28;19976;-65
2023/10/11 01:07:37;;;;;;;;;;;;;;;21.79;47.33;98436.00;5074436;28;19955;-65
2023/10/11 01:10:04;;;;;;;;;;;;;;;21.77;47.13;98440.19;5073940;28;20393;-65
2023/10/11 01:12:30;;;;;;;;;;;;;;;21.82;47.08;98427.19;5074107;28;19917;-66
2023/10/11 01:14:58;;;;;;;;;;;;;;;21.79;47.24;98427.81;5074677;28;20266;-66
2023/10/11 01:17:24;;;;;;;;;;;;;;;21.83;46.93;98428.78;5074514;28;19919;-66
2023/10/11 01:19:51;;;;;;;;;;;;;;;21.83;46.98;98422.50;5074437;28;20414;-66
2023/10/11 01:22:17;;;;;;;;;;;;;;;21.66;47.51;98423.28;5065764;28;20396;-65
2023/10/11 01:24:44;;;;;;;;;;;;;;;21.69;47.44;98425.34;5086585;28;19912;-64
2023/10/11 01:27:13;;;;;;;;;;;;;;;21.65;47.72;98425.19;5078615;28;19939;-64
2023/10/11 01:29:39;;;;;;;;;;;;;;;21.74;47.15;98429.88;5073611;28;19912;-64
2023/10/11 01:32:04;;;;;;;;;;;;;;;21.76;47.38;98416.72;5073925;28;19923;-64
2023/10/11 01:34:31;;;;;;;;;;;;;;;21.80;47.18;98421.22;5073489;28;19917;-64
2023/10/11 01:36:57;;;;;;;;;;;;;;;21.79;47.20;98419.59;5073888;28;19916;-64
2023/10/11 01:39:22;;;;;;;;;;;;;;;21.74;47.18;98417.03;5073997;28;19912;-64
2023/10/11 01:41:49;;;;;;;;;;;;;;;21.75;47.25;98402.25;5073807;28;20061;-64
2023/10/11 01:44:14;;;;;;;;;;;;;;;21.88;46.82;98397.78;5056245;28;19991;-64
2023/10/11 01:46:40;;;;;;;;;;;;;;;21.78;47.07;98407.06;5074355;28;19954;-64
2023/10/11 01:49:08;;;;;;;;;;;;;;;21.60;47.83;98399.94;5074505;28;19995;-64
2023/10/11 01:51:39;;;;;;;;;;;;;;;21.57;47.77;98392.41;5074438;28;19912;-64
2023/10/11 01:54:04;;;;;;;;;;;;;;;21.56;47.83;98388.06;5073482;28;20281;-64
2023/10/11 01:56:30;;;;;;;;;;;;;;;21.58;47.76;98377.59;5073638;28;19913;-64
2023/10/11 01:59:01;;;;;;;;;;;;;;;21.60;47.81;98378.09;5076810;28;19927;-64
2023/10/11 02:01:28;;;;;;;;;;;;;;;21.56;48.21;98368.94;5092236;28;19922;-64
2023/10/11 02:03:56;;;;;;;;;;;;;;;21.59;48.09;98366.38;5077248;28;19917;-64
2023/10/11 02:06:22;;;;;;;;;;;;;;;21.49;48.61;98350.28;5077182;28;20324;-64
2023/10/11 02:08:47;;;;;;;;;;;;;;;21.52;48.70;98340.66;5077144;28;19970;-64
2023/10/11 02:11:15;;;;;;;;;;;;;;;21.43;48.87;98346.06;5076881;28;20011;-65
2023/10/11 02:13:44;;;;;;;;;;;;;;;21.41;48.99;98332.75;5076666;28;20387;-65
2023/10/11 02:16:14;;;;;;;;;;;;;;;21.41;49.05;98335.47;5077025;28;19967;-65
2023/10/11 02:18:40;;;;;;;;;;;;;;;21.42;48.82;98320.69;5077283;28;19918;-65
2023/10/11 02:21:08;;;;;;;;;;;;;;;21.42;48.68;98317.94;5077361;28;19912;-65
2023/10/11 02:23:39;;;;;;;;;;;;;;;21.35;49.08;98327.72;5079102;28;20000;-65
2023/10/11 02:26:09;;;;;;;;;;;;;;;21.15;50.09;98334.56;5097344;28;19912;-65
2023/10/11 02:28:38;;;;;;;;;;;;;;;21.19;49.55;98341.00;5089417;28;19955;-65
2023/10/11 02:31:04;;;;;;;;;;;;;;;21.32;49.48;98344.75;5076920;28;20003;-65
2023/10/11 02:33:32;;;;;;;;;;;;;;;21.27;49.62;98351.16;5076850;28;20377;-65
2023/10/11 02:35:58;;;;;;;;;;;;;;;21.34;49.46;98342.50;5076592;28;19987;-65
2023/10/11 02:38:23;;;;;;;;;;;;;;;21.46;48.80;98331.81;5104169;28;19920;-65
2023/10/11 02:40:55;;;;;;;;;;;;;;;21.31;49.36;98346.66;5077167;28;19973;-65
2023/10/11 02:43:27;;;;;;;;;;;;;;;21.35;49.24;98355.84;5077325;28;19916;-65
2023/10/11 02:45:52;;;;;;;;;;;;;;;21.44;48.87;98350.41;5076190;28;19920;-65
2023/10/11 02:48:21;;;;;;;;;;;;;;;21.52;48.65;98354.31;5076061;28;19912;-65
2023/10/11 02:50:47;;;;;;;;;;;;;;;21.56;48.69;98336.97;5076066;28;19969;-65
2023/10/11 02:53:22;;;;;;;;;;;;;;;21.68;47.97;98330.88;5076108;28;20017;-65
2023/10/11 02:55:57;;;;;;;;;;;;;;;21.67;48.08;98325.72;5075674;28;19913;-64
2023/10/11 02:58:24;;;;;;;;;;;;;;;21.60;48.48;98332.47;5076089;28;19912;-64
2023/10/11 03:00:56;;;;;;;;;;;;;;;21.59;48.59;98343.72;5087530;28;19912;-64
2023/10/11 03:03:23;;;;;;;;;;;;;;;21.63;48.23;98341.94;5077383;28;20288;-65
2023/10/11 03:05:48;;;;;;;;;;;;;;;21.67;48.42;98318.31;5076177;28;19913;-65
2023/10/11 03:08:14;;;;;;;;;;;;;;;21.65;48.49;98324.09;5076969;28;19919;-65
2023/10/11 03:10:53;;;;;;;;;;;;;;;21.68;48.32;98325.41;5076452;28;20293;-65
2023/10/11 03:13:24;;;;;;;;;;;;;;;21.79;47.92;98325.91;5077185;28;19966;-65
2023/10/11 03:15:56;;;;;;;;;;;;;;;21.87;47.64;98310.63;5077501;28;19912;-65
2023/10/11 03:18:31;;;;;;;;;;;;;;;21.93;47.75;98299.22;5096879;28;19912;-65
2023/10/11 03:21:07;;;;;;;;;;;;;;;21.99;47.58;98278.81;5087469;28;20359;-66
2023/10/11 03:23:36;;;;;;;;;;;;;;;21.96;47.79;98282.19;5079184;28;19938;-65
2023/10/11 03:26:23;;;;;;;;;;;;;;;21.97;47.46;98264.66;5078401;28;19971;-66
2023/10/11 03:28:57;;;;;;;;;;;;;;;21.97;47.45;98255.63;5075974;28;19919;-65
2023/10/11 03:31:29;;;;;;;;;;;;;;;21.96;47.56;98243.13;5076264;28;19923;-65
2023/10/11 03:34:10;;;;;;;;;;;;;;;21.97;47.68;98247.44;5076754;28;19913;-65
2023/10/11 03:36:43;;;;;;;;;;;;;;;21.97;47.68;98239.25;5076507;28;20011;-65
2023/10/11 03:39:13;;;;;;;;;;;;;;;21.99;47.41;98231.53;5076950;28;20253;-64
2023/10/11 03:41:45;;;;;;;;;;;;;;;22.00;47.45;98244.06;5076169;28;19912;-64
2023/10/11 03:44:17;;;;;;;;;;;;;;;21.96;47.89;98240.38;5076218;28;20003;-65
2023/10/11 03:46:47;;;;;;;;;;;;;;;21.88;48.09;98228.34;5075740;28;19920;-65
2023/10/11 03:51:43;;;;;;;;;;;;;;;21.83;47.99;98237.50;5076355;28;19928;-65
2023/10/11 03:54:24;;;;;;;;;;;;;;;21.82;48.08;98244.09;5075017;28;19913;-65
2023/10/11 03:56:53;;;;;;;;;;;;;;;21.80;48.13;98246.34;5075684;28;19916;-66
2023/10/11 03:59:38;;;;;;;;;;;;;;;21.70;48.27;98252.13;5075057;28;20049;-65
2023/10/11 04:02:03;;;;;;;;;;;;;;;21.69;48.59;98239.59;5087992;28;19912;-65
2023/10/11 04:04:28;;;;;;;;;;;;;;;21.69;48.17;98247.78;5075095;28;19957;-66
2023/10/11 04:07:00;;;;;;;;;;;;;;;21.72;48.24;98232.69;5075499;28;19912;-66
2023/10/11 04:09:37;;;;;;;;;;;;;;;21.75;48.18;98234.75;5075170;28;19913;-66
2023/10/11 04:12:04;;;;;;;;;;;;;;;21.72;48.49;98222.56;5055268;28;20284;-65
2023/10/11 04:14:49;;;;;;;;;;;;;;;21.73;48.08;98218.72;5055201;28;19920;-65
2023/10/11 04:19:49;;;;;;;;;;;;;;;21.87;47.69;98234.13;5094722;28;19916;-65
2023/10/11 04:22:17;;;;;;;;;;;;;;;21.88;47.48;98222.88;5107367;28;19912;-65
2023/10/11 04:24:45;;;;;;;;;;;;;;;21.85;47.52;98218.03;5087765;28;19916;-65
2023/10/11 04:29:45;;;;;;;;;;;;;;;21.79;47.49;98195.56;5055771;28;19919;-66
2023/10/11 04:32:14;;;;;;;;;;;;;;;21.67;47.46;98197.34;5057638;28;19999;-66
2023/10/11 04:34:47;;;;;;;;;;;;;;;21.56;47.80;98210.50;5075691;28;20292;-65
2023/10/11 04:37:19;;;;;;;;;;;;;;;21.55;47.42;98206.97;5075795;28;20369;-65
2023/10/11 04:39:50;;;;;;;;;;;;;;;21.43;47.92;98188.50;5076395;28;19912;-66
2023/10/11 04:42:16;;;;;;;;;;;;;;;21.49;47.78;98185.59;5075692;28;20007;-66
2023/10/11 04:44:42;;;;;;;;;;;;;;;21.51;47.47;98186.09;5075230;28;20003;-65
2023/10/11 04:47:11;;;;;;;;;;;;;;;21.40;47.75;98189.13;5090567;28;20412;-65
2023/10/11 04:49:36;;;;;;;;;;;;;;;21.43;47.63;98187.66;5074977;28;19947;-65
2023/10/11 04:52:13;;;;;;;;;;;;;;;21.39;47.68;98198.44;5075305;28;20382;-66
2023/10/11 04:54:53;;;;;;;;;;;;;;;21.33;47.83;98198.91;5074239;28;20369;-65
2023/10/11 04:57:20;;;;;;;;;;;;;;;21.31;48.26;98193.78;5054729;28;19916;-65
2023/10/11 04:59:46;;;;;;;;;;;;;;;21.34;47.79;98174.03;5060149;28;20666;-65
2023/10/11 05:02:23;;;;;;;;;;;;;;;21.34;47.92;98184.97;5086466;28;20273;-66
2023/10/11 05:04:51;;;;;;;;;;;;;;;21.32;48.05;98187.22;5074282;28;19964;-66
2023/10/11 05:07:19;;;;;;;;;;;;;;;21.36;47.85;98174.50;5075130;28;19916;-65
2023/10/11 05:09:52;;;;;;;;;;;;;;;21.35;47.79;98178.34;5075038;28;20484;-66
2023/10/11 05:12:20;;;;;;;;;;;;;;;21.38;47.60;98183.19;5075355;28;19970;-66
2023/10/11 05:19:44;;;;;;;;;;;;;;;21.38;47.55;98171.47;5075701;28;19920;-66
2023/10/11 05:27:37;;;;;;;;;;;;;;;21.45;47.21;98180.81;5074900;28;19940;-66
2023/10/11 05:32:58;;;;;;;;;;;;;;;21.45;47.18;98183.53;5077109;28;19916;-66
2023/10/11 05:51:34;;;;;;;;;;;;;;;21.17;47.10;98193.13;5078717;28;19916;-65
2023/10/11 05:54:04;;;;;;;;;;;;;;;21.20;47.21;98200.69;5078102;28;19920;-65
2023/10/11 05:56:41;;;;;;;;;;;;;;;21.18;47.05;98201.00;5078804;28;20316;-65
2023/10/11 05:59:10;;;;;;;;;;;;;;;21.18;47.36;98198.25;5060162;28;19917;-65
2023/10/11 06:01:37;;;;;;;;;;;;;;;21.11;47.49;98194.41;5092727;28;19919;-65
2023/10/11 06:04:03;;;;;;;;;;;;;;;21.00;47.60;98194.69;5078553;28;19994;-65
2023/10/11 06:06:42;;;;;;;;;;;;;;;21.07;47.26;98191.50;5077520;28;19956;-65
2023/10/11 06:09:17;;;;;;;;;;;;;;;21.18;47.04;98192.81;5078165;28;19912;-65
2023/10/11 06:11:48;;;;;;;;;;;;;;;21.06;47.53;98198.91;5077635;28;19983;-65
2023/10/11 06:14:16;;;;;;;;;;;;;;;21.03;47.70;98206.91;5078135;28;19916;-66
2023/10/11 06:16:43;;;;;;;;;;;;;;;20.96;47.20;98212.03;5077998;28;19912;-66
2023/10/11 06:19:17;;;;;;;;;;;;;;;20.81;47.11;98202.38;5078534;28;19919;-65
2023/10/11 06:24:47;;;;;;;;;;;;;;;20.78;46.52;98198.38;5028522;28;19985;-65
2023/10/11 06:29:57;;;;;;;;;;;;;;;20.72;44.95;98212.44;5098164;28;19916;-65
2023/10/11 06:32:23;;;;;;;;;;;;;;;20.68;43.78;98213.06;5097662;28;19919;-66
2023/10/11 06:34:50;;;;;;;;;;;;;;;20.67;43.60;98197.84;5096457;28;20002;-67
2023/10/11 06:37:25;;;;;;;;;;;;;;;20.56;41.35;98207.41;5100746;28;19912;-66
2023/10/11 06:40:14;;;;;;;;;;;;;;;20.55;38.48;98208.50;5075841;28;19920;-67
2023/10/11 06:42:36;;;;;;;;;;;;;;;20.25;38.69;98208.22;5074820;28;19912;-67
2023/10/11 06:45:05;;;;;;;;;;;;;;;20.20;37.98;98219.25;5075744;28;19982;-67
2023/10/11 06:47:36;;;;;;;;;;;;;;;20.16;37.26;98214.75;5075603;28;19920;-66
2023/10/11 06:50:11;;;;;;;;;;;;;;;19.96;34.64;98221.53;5075512;28;19967;-66
2023/10/11 06:52:45;;;;;;;;;;;;;;;19.84;34.95;98220.16;5075797;28;20054;-66
2023/10/11 06:55:22;;;;;;;;;;;;;;;19.76;35.14;98214.66;5074855;28;19919;-66
2023/10/11 06:57:51;;;;;;;;;;;;;;;19.65;34.98;98231.22;5075625;28;19920;-65
2023/10/11 07:00:36;;;;;;;;;;;;;;;19.70;35.34;98222.91;5082466;28;20006;-65
2023/10/11 07:05:46;;;;;;;;;;;;;;;19.43;33.66;98239.38;5075143;28;20293;-67
2023/10/11 07:08:19;;;;;;;;;;;;;;;19.51;34.22;98220.34;5074364;28;19914;-67
2023/10/11 07:10:45;;;;;;;;;;;;;;;19.53;35.15;98212.69;5073689;28;20304;-67
2023/10/11 07:13:14;;;;;;;;;;;;;;;19.46;34.01;98225.13;5074696;28;19912;-67
2023/10/11 07:15:46;;;;;;;;;;;;;;;19.41;33.18;98212.44;5075178;28;19920;-67
2023/10/11 07:18:28;;;;;;;;;;;;;;;19.46;34.01;98214.22;5054980;28;19920;-67
2023/10/11 07:21:09;;;;;;;;;;;;;;;19.36;33.61;98212.56;5073981;28;19917;-67
2023/10/11 07:23:45;;;;;;;;;;;;;;;19.25;33.65;98216.63;5074865;28;19912;-67
2023/10/11 07:29:05;;;;;;;;;;;;;;;19.33;34.15;98218.59;5074978;28;19923;-67
2023/10/11 07:31:35;;;;;;;;;;;;;;;19.30;33.39;98224.69;5074544;28;19987;-67
2023/10/11 07:34:09;;;;;;;;;;;;;;;19.32;34.33;98217.81;5074389;28;20599;-67
2023/10/11 07:36:38;;;;;;;;;;;;;;;19.43;34.49;98209.41;5074821;28;19912;-67
2023/10/11 07:42:02;;;;;;;;;;;;;;;19.54;35.39;98197.97;5074766;28;19947;-67
2023/10/11 07:44:29;;;;;;;;;;;;;;;19.53;37.64;98214.59;5074706;28;19920;-67
2023/10/11 07:46:55;;;;;;;;;;;;;;;19.66;38.15;98219.19;5074665;28;19913;-67
2023/10/11 07:49:24;;;;;;;;;;;;;;;19.64;38.91;98221.41;5074763;28;19924;-67
2023/10/11 07:51:58;;;;;;;;;;;;;;;19.65;38.78;98209.44;5090032;28;19920;-67
2023/10/11 07:54:25;;;;;;;;;;;;;;;19.82;39.03;98207.97;5072910;28;20038;-67
2023/10/11 07:56:57;;;;;;;;;;;;;;;20.01;38.81;98216.75;5092033;28;19912;-67
2023/10/11 07:59:26;;;;;;;;;;;;;;;19.96;38.04;98219.59;5094338;28;19912;-67
2023/10/11 08:01:54;;;;;;;;;;;;;;;20.07;38.36;98212.75;5053736;28;19917;-67
2023/10/11 08:04:27;;;;;;;;;;;;;;;20.07;38.03;98211.97;5053985;28;19955;-67
2023/10/11 08:07:03;;;;;;;;;;;;;;;20.02;37.93;98201.19;5054292;28;19944;-67
2023/10/11 08:09:34;;;;;;;;;;;;;;;19.88;38.00;98204.81;5058631;28;19924;-67
2023/10/11 08:11:59;;;;;;;;;;;;;;;19.77;37.74;98202.66;5073492;28;19932;-67
2023/10/11 08:14:28;;;;;;;;;;;;;;;19.71;37.97;98197.28;5073737;28;19920;-67
2023/10/11 08:16:56;;;;;;;;;;;;;;;19.62;37.79;98195.63;5083546;28;19916;-67
2023/10/11 08:19:22;;;;;;;;;;;;;;;19.51;37.40;98193.13;5094125;28;19926;-67
2023/10/11 08:21:54;;;;;;;;;;;;;;;19.56;38.08;98191.41;5077632;28;20280;-67
2023/10/11 08:24:24;;;;;;;;;;;;;;;19.61;37.19;98162.13;5083060;28;19955;-67
2023/10/11 08:26:52;;;;;;;;;;;;;;;19.40;36.38;98156.38;5093948;28;20426;-67
2023/10/11 08:29:27;;;;;;;;;;;;;;;19.49;36.24;98179.03;5068735;28;20312;-67
2023/10/11 08:31:58;;;;;;;;;;;;;;;19.45;36.04;98172.59;5056230;28;20445;-67
2023/10/11 08:34:25;;;;;;;;;;;;;;;19.31;35.62;98188.16;5073297;28;19917;-67
2023/10/11 08:36:51;;;;;;;;;;;;;;;19.37;36.04;98175.25;5073419;28;19916;-67
2023/10/11 08:39:21;;;;;;;;;;;;;;;19.41;35.55;98174.34;5073311;28;19917;-67
2023/10/11 08:41:46;;;;;;;;;;;;;;;19.43;35.79;98163.94;5089115;28;20015;-67
2023/10/11 08:44:20;;;;;;;;;;;;;;;19.44;36.45;98176.41;5073951;28;19956;-67
2023/10/11 08:46:48;;;;;;;;;;;;;;;19.46;35.41;98160.59;5073923;28;19972;-67
2023/10/11 08:49:14;;;;;;;;;;;;;;;19.31;35.67;98160.94;5073768;28;19920;-67
2023/10/11 08:51:43;;;;;;;;;;;;;;;19.37;35.74;98159.75;5092098;28;19920;-67
2023/10/11 08:54:11;;;;;;;;;;;;;;;19.36;35.33;98193.50;5073016;28;20261;-67
2023/10/11 08:56:39;;;;;;;;;;;;;;;19.45;34.60;98178.03;5089403;28;19916;-67
2023/10/11 08:59:05;;;;;;;;;;;;;;;19.40;34.51;98182.81;5093312;28;19916;-67
2023/10/11 09:01:36;;;;;;;;;;;;;;;19.37;34.87;98178.78;5075887;28;19943;-67
2023/10/11 09:04:11;;;;;;;;;;;;;;;19.46;35.08;98173.41;5055874;28;19912;-67
2023/10/11 09:06:40;;;;;;;;;;;;;;;19.24;33.89;98204.94;5073013;28;20449;-67
2023/10/11 09:09:05;;;;;;;;;;;;;;;19.31;34.29;98188.97;5073139;28;19913;-67
2023/10/11 09:11:34;;;;;;;;;;;;;;;19.37;33.39;98205.19;5072824;28;19932;-67
2023/10/11 09:14:09;;;;;;;;;;;;;;;19.33;34.03;98175.88;5073099;28;20011;-67
2023/10/11 09:16:34;;;;;;;;;;;;;;;19.48;32.80;98176.63;5062393;28;20002;-67
2023/10/11 09:19:05;;;;;;;;;;;;;;;19.43;31.89;98190.38;5093335;28;20011;-67
2023/10/11 09:21:34;;;;;;;;;;;;;;;19.31;30.91;98204.50;5079607;28;19912;-67
2023/10/11 09:24:00;;;;;;;;;;;;;;;19.44;31.03;98191.97;5080175;28;19999;-67
2023/10/11 09:26:34;;;;;;;;;;;;;;;19.29;30.56;98212.97;5078825;28;20352;-67
2023/10/11 09:29:02;;;;;;;;;;;;;;;19.34;29.85;98207.41;5072661;28;19916;-67
2023/10/11 09:31:31;;;;;;;;;;;;;;;19.33;31.38;98213.97;5072800;28;19920;-67
2023/10/11 09:34:01;;;;;;;;;;;;;;;19.37;31.55;98244.13;5072785;28;19920;-67
2023/10/11 09:36:28;;;;;;;;;;;;;;;19.33;31.07;98234.94;5072829;28;19916;-67
2023/10/11 09:38:56;;;;;;;;;;;;;;;19.50;30.47;98202.44;5073224;28;19916;-67
2023/10/11 09:41:23;;;;;;;;;;;;;;;19.62;30.56;98204.59;5073233;28;19912;-67
2023/10/11 09:43:48;;;;;;;;;;;;;;;19.75;30.54;98213.84;5073131;28;19973;-67
2023/10/11 09:46:14;;;;;;;;;;;;;;;19.77;31.39;98213.53;5073041;28;19912;-67
2023/10/11 09:48:42;;;;;;;;;;;;;;;19.54;30.61;98208.06;5072774;28;19912;-67
2023/10/11 09:51:14;;;;;;;;;;;;;;;19.53;30.52;98217.34;5072883;28;19943;-67
2023/10/11 09:53:49;;;;;;;;;;;;;;;19.60;30.70;98219.63;5072405;28;19913;-67
2023/10/11 09:56:41;;;;;;;;;;;;;;;19.61;29.63;98210.34;5086237;28;19912;-67
2023/10/11 09:59:19;;;;;;;;;;;;;;;19.71;29.52;98212.84;5090023;28;19989;-67
2023/10/11 10:01:56;;;;;;;;;;;;;;;19.73;30.26;98214.16;5073100;28;19912;-67
2023/10/11 10:04:40;;;;;;;;;;;;;;;19.69;29.73;98232.19;5072608;28;19924;-67
2023/10/11 10:07:14;;;;;;;;;;;;;;;19.66;29.65;98215.69;5072583;28;19919;-67
2023/10/11 10:10:01;;;;;;;;;;;;;;;19.63;29.46;98205.38;5072296;28;19923;-67
2023/10/11 10:12:41;;;;;;;;;;;;;;;20.02;29.72;98198.47;5072325;28;19920;-67
2023/10/11 10:15:14;;;;;;;;;;;;;;;20.03;29.38;98219.16;5072438;28;19921;-67
2023/10/11 10:18:00;;;;;;;;;;;;;;;19.99;29.78;98182.75;5084355;28;19912;-67
2023/10/11 10:20:34;;;;;;;;;;;;;;;20.21;29.69;98176.47;5065403;28;19962;-67
2023/10/11 10:23:15;;;;;;;;;;;;;;;20.21;28.72;98179.19;5076056;28;19912;-67
2023/10/11 10:25:46;;;;;;;;;;;;;;;20.31;30.20;98185.16;5056028;28;19913;-67
2023/10/11 10:28:31;;;;;;;;;;;;;;;20.55;30.19;98180.44;5055883;28;19920;-67
2023/10/11 10:31:24;;;;;;;;;;;;;;;20.69;30.23;98186.63;5055811;28;19960;-67
2023/10/11 10:34:05;;;;;;;;;;;;;;;20.84;29.83;98193.56;5055013;28;19913;-67
2023/10/11 10:36:31;;;;;;;;;;;;;;;21.02;28.39;98206.13;5055833;28;19913;-67
2023/10/11 10:38:59;;;;;;;;;;;;;;;21.13;28.82;98203.88;5056039;28;19916;-67
2023/10/11 10:41:30;;;;;;;;;;;;;;;21.03;27.43;98199.53;5055770;28;20043;-68
2023/10/11 10:44:01;;;;;;;;;;;;;;;21.18;26.58;98201.00;5060104;28;20438;-68
2023/10/11 10:46:29;;;;;;;;;;;;;;;21.42;28.67;98186.88;5094443;28;19916;-68
2023/10/11 10:48:55;;;;;;;;;;;;;;;21.36;28.37;98187.34;5075626;28;19966;-68
2023/10/11 10:51:21;;;;;;;;;;;;;;;21.48;29.32;98184.03;5075132;28;19916;-68
2023/10/11 10:53:53;;;;;;;;;;;;;;;21.57;29.17;98182.09;5074852;28;19992;-68
2023/10/11 10:56:19;;;;;;;;;;;;;;;21.62;29.07;98165.53;5075123;28;20381;-68
2023/10/11 10:58:44;;;;;;;;;;;;;;;21.68;28.73;98172.44;5075235;28;19951;-68
2023/10/11 11:01:10;;;;;;;;;;;;;;;21.67;27.62;98167.28;5089845;28;20312;-68
2023/10/11 11:03:35;;;;;;;;;;;;;;;21.82;27.06;98183.16;5075602;28;19917;-68
2023/10/11 11:06:01;;;;;;;;;;;;;;;21.74;27.18;98170.34;5075620;28;19919;-68
2023/10/11 11:08:28;;;;;;;;;;;;;;;21.57;26.99;98177.41;5075140;28;19939;-68
2023/10/11 11:10:54;;;;;;;;;;;;;;;21.51;27.34;98169.69;5075115;28;19924;-68
2023/10/11 11:13:25;;;;;;;;;;;;;;;21.66;26.59;98169.22;5075105;28;20317;-68
2023/10/11 11:15:55;;;;;;;;;;;;;;;21.80;30.18;98152.63;5075907;28;19912;-68
2023/10/11 11:18:31;;;;;;;;;;;;;;;21.89;26.39;98169.81;5067851;28;20023;-68
2023/10/11 11:20:59;;;;;;;;;;;;;;;21.93;27.06;98135.22;5075297;28;19974;-68
2023/10/11 11:23:27;;;;;;;;;;;;;;;22.10;27.29;98142.59;5075263;28;20337;-68
2023/10/11 11:25:53;;;;;;;;;;;;;;;22.31;25.93;98150.09;5074994;28;19920;-68
2023/10/11 11:28:20;;;;;;;;;;;;;;;22.17;25.35;98147.53;5075332;28;19946;-68
2023/10/11 11:30:51;;;;;;;;;;;;;;;22.33;26.48;98139.63;5074853;28;19924;-68
2023/10/11 11:33:36;;;;;;;;;;;;;;;22.53;25.65;98147.09;5074975;28;19916;-68
2023/10/11 11:36:18;;;;;;;;;;;;;;;22.46;24.99;98151.50;5074954;28;20000;-68
2023/10/11 11:38:47;;;;;;;;;;;;;;;22.46;25.04;98121.41;5075255;28;20365;-68
2023/10/11 11:41:18;;;;;;;;;;;;;;;22.45;24.81;98128.78;5074654;28;19912;-69
2023/10/11 11:43:46;;;;;;;;;;;;;;;22.43;26.06;98133.78;5075045;28;20341;-69
2023/10/11 11:46:15;;;;;;;;;;;;;;;22.38;24.99;98147.63;5074989;28;19912;-68
2023/10/11 11:48:41;;;;;;;;;;;;;;;22.72;25.53;98127.50;5074551;28;20357;-68
2023/10/11 11:51:13;;;;;;;;;;;;;;;22.78;25.29;98123.44;5074527;28;20034;-69
2023/10/11 11:53:43;;;;;;;;;;;;;;;22.86;26.81;98108.09;5074527;28;19913;-68
2023/10/11 11:56:08;;;;;;;;;;;;;;;22.93;24.07;98104.84;5074515;28;19919;-67
2023/10/11 11:58:33;;;;;;;;;;;;;;;23.01;24.18;98106.69;5074121;28;19925;-67
2023/10/11 12:01:15;;;;;;;;;;;;;;;23.21;26.32;98104.31;5074234;28;19957;-68
2023/10/11 12:03:41;;;;;;;;;;;;;;;23.23;24.32;98104.78;5054586;28;19917;-68
2023/10/11 12:06:21;;;;;;;;;;;;;;;23.29;23.88;98085.09;5054895;28;20523;-68
2023/10/11 12:08:47;;;;;;;;;;;;;;;23.47;24.99;98096.66;5054181;28;20390;-67
2023/10/11 12:11:15;;;;;;;;;;;;;;;23.27;23.38;98097.50;5053901;28;19924;-68
2023/10/11 12:13:41;;;;;;;;;;;;;;;23.44;26.37;98075.44;5055729;28;19974;-68
2023/10/11 12:16:09;;;;;;;;;;;;;;;23.50;23.48;98079.56;5077326;28;20408;-68
2023/10/11 12:18:34;;;;;;;;;;;;;;;23.59;23.29;98090.44;5094318;28;19966;-68
2023/10/11 12:21:02;;;;;;;;;;;;;;;23.46;23.72;98102.47;5084916;28;19912;-68
2023/10/11 12:23:27;;;;;;;;;;;;;;;23.57;24.20;98082.53;5076315;28;19916;-68
2023/10/11 12:25:54;;;;;;;;;;;;;;;23.75;22.80;98128.94;5094251;28;19916;-69
2023/10/11 12:28:25;;;;;;;;;;;;;;;23.43;21.93;98101.22;5094492;28;19934;-68
2023/10/11 12:30:50;;;;;;;;;;;;;;;23.72;24.10;98072.06;5094546;28;19916;-69
2023/10/11 12:33:18;;;;;;;;;;;;;;;23.96;23.56;98069.41;5094329;28;19981;-67
2023/10/11 12:35:44;;;;;;;;;;;;;;;23.89;22.31;98080.13;5094336;28;19995;-68
2023/10/11 12:38:12;;;;;;;;;;;;;;;23.94;23.60;98087.31;5074975;28;20779;-68
2023/10/11 12:40:38;;;;;;;;;;;;;;;24.19;24.04;98079.13;5073314;28;19916;-67
2023/10/11 12:43:07;;;;;;;;;;;;;;;24.40;25.15;98077.03;5073717;28;19920;-68
2023/10/11 12:45:36;;;;;;;;;;;;;;;24.43;23.06;98106.53;5073440;28;20435;-68
2023/10/11 12:48:10;;;;;;;;;;;;;;;24.37;23.24;98072.25;5073148;28;20016;-68
2023/10/11 12:50:38;;;;;;;;;;;;;;;24.30;23.35;98077.50;5073314;28;19923;-68
2023/10/11 12:53:10;;;;;;;;;;;;;;;24.29;22.30;98081.38;5073746;28;19966;-67
2023/10/11 12:55:38;;;;;;;;;;;;;;;24.14;21.92;98088.34;5073150;28;19947;-68
2023/10/11 12:58:03;;;;;;;;;;;;;;;23.91;22.16;98088.81;5073421;28;19912;-68
2023/10/11 13:00:29;;;;;;;;;;;;;;;23.78;22.15;98068.75;5082195;28;19912;-67
2023/10/11 13:03:13;;;;;;;;;;;;;;;23.83;22.44;98086.97;5093792;28;19924;-68
2023/10/11 13:05:39;;;;;;;;;;;;;;;23.71;23.55;98057.56;5093940;28;20380;-67
2023/10/11 13:08:04;;;;;;;;;;;;;;;23.75;22.23;98083.16;5093739;28;19912;-67
2023/10/11 13:10:29;;;;;;;;;;;;;;;23.76;22.60;98071.03;5086800;28;20003;-67
2023/10/11 13:12:55;;;;;;;;;;;;;;;23.56;22.42;98099.31;5073519;28;19916;-67
2023/10/11 13:15:21;;;;;;;;;;;;;;;23.53;23.52;98078.88;5073553;28;20355;-67
2023/10/11 13:17:46;;;;;;;;;;;;;;;23.68;22.58;98090.31;5090654;28;19912;-67
2023/10/11 13:20:18;;;;;;;;;;;;;;;23.94;22.64;98090.88;5090471;28;20377;-67
2023/10/11 13:22:49;;;;;;;;;;;;;;;24.15;22.49;98081.75;5073083;28;19959;-68
2023/10/11 13:25:24;;;;;;;;;;;;;;;24.51;23.03;98078.16;5090293;28;19966;-67
2023/10/11 13:27:54;;;;;;;;;;;;;;;24.83;23.10;98089.38;5093323;28;19919;-67
2023/10/11 13:30:23;;;;;;;;;;;;;;;25.15;22.63;98086.75;5075096;28;19920;-68
2023/10/11 13:32:51;;;;;;;;;;;;;;;25.52;22.46;98094.06;5087368;28;19924;-68
2023/10/11 13:35:17;;;;;;;;;;;;;;;25.73;21.09;98094.63;5073336;28;19920;-68
2023/10/11 13:37:46;;;;;;;;;;;;;;;25.87;20.59;98081.25;5072938;28;19983;-68
2023/10/11 13:40:18;;;;;;;;;;;;;;;26.07;20.88;98089.63;5054986;28;19961;-68
2023/10/11 13:42:43;;;;;;;;;;;;;;;26.05;20.80;98087.22;5073348;28;19913;-68
2023/10/11 13:45:16;;;;;;;;;;;;;;;26.15;21.56;98087.84;5072863;28;20345;-68
2023/10/11 13:47:42;;;;;;;;;;;;;;;26.38;21.08;98099.03;5072861;28;20042;-68
2023/10/11 13:50:20;;;;;;;;;;;;;;;26.58;21.04;98081.41;5073125;28;19966;-68
2023/10/11 13:52:48;;;;;;;;;;;;;;;26.45;19.80;98083.47;5073167;28;19923;-67
2023/10/11 13:55:14;;;;;;;;;;;;;;;25.81;19.33;98054.38;5080889;28;19995;-68
2023/10/11 13:57:41;;;;;;;;;;;;;;;26.06;19.69;98090.78;5096914;28;20280;-67